sensor_id;sensor_type;location;lat;lon;timestamp;P1;durP1;ratioP1;P2;durP2;ratioP2
20914;SDS011;10617;52.032;5.298;2024-03-06T00:02:03;17.77;;;11.65;;
20914;SDS011;10617;52.032;5.298;2024-03-06T00:06:05;19.42;;;12.32;;
20914;SDS011;10617;52.032;5.298;2024-03-06T00:10:07;18.33;;;11.77;;
20914;SDS011;10617;52.032;5.298;2024-03-06T00:14:09;19.45;;;11.30;;
20914;SDS011;10617;52.032;5.298;2024-03-06T00:18:14;18.80;;;11.93;;
20914;SDS011;10617;52.032;5.298;2024-03-06T00:22:15;18.33;;;12.02;;
20914;SDS011;10617;52.032;5.298;2024-03-06T00:26:22;18.52;;;11.88;;
20914;SDS011;10617;52.032;5.298;2024-03-06T00:30:23;20.45;;;12.95;;
20914;SDS011;10617;52.032;5.298;2024-03-06T00:34:25;18.23;;;11.52;;
20914;SDS011;10617;52.032;5.298;2024-03-06T00:43:50;18.10;;;11.35;;
20914;SDS011;10617;52.032;5.298;2024-03-06T00:47:52;20.33;;;11.85;;
20914;SDS011;10617;52.032;5.298;2024-03-06T00:51:54;18.73;;;12.27;;
20914;SDS011;10617;52.032;5.298;2024-03-06T00:55:56;18.17;;;11.52;;
20914;SDS011;10617;52.032;5.298;2024-03-06T00:59:58;20.00;;;12.13;;
20914;SDS011;10617;52.032;5.298;2024-03-06T01:04:00;20.98;;;12.18;;
20914;SDS011;10617;52.032;5.298;2024-03-06T01:08:02;19.55;;;13.45;;
20914;SDS011;10617;52.032;5.298;2024-03-06T01:12:04;19.35;;;12.68;;
20914;SDS011;10617;52.032;5.298;2024-03-06T01:16:06;16.73;;;10.77;;
20914;SDS011;10617;52.032;5.298;2024-03-06T01:20:08;16.98;;;11.05;;
20914;SDS011;10617;52.032;5.298;2024-03-06T01:24:10;20.13;;;12.27;;
20914;SDS011;10617;52.032;5.298;2024-03-06T01:28:12;21.50;;;12.38;;
20914;SDS011;10617;52.032;5.298;2024-03-06T01:32:14;17.65;;;11.20;;
20914;SDS011;10617;52.032;5.298;2024-03-06T01:36:22;20.20;;;11.77;;
20914;SDS011;10617;52.032;5.298;2024-03-06T01:40:23;19.95;;;11.65;;
20914;SDS011;10617;52.032;5.298;2024-03-06T01:44:25;23.08;;;13.80;;
20914;SDS011;10617;52.032;5.298;2024-03-06T01:48:27;20.60;;;13.15;;
20914;SDS011;10617;52.032;5.298;2024-03-06T01:52:30;20.50;;;11.90;;
20914;SDS011;10617;52.032;5.298;2024-03-06T01:56:33;17.92;;;11.70;;
20914;SDS011;10617;52.032;5.298;2024-03-06T02:00:36;20.60;;;11.73;;
20914;SDS011;10617;52.032;5.298;2024-03-06T02:04:38;19.65;;;10.95;;
20914;SDS011;10617;52.032;5.298;2024-03-06T02:08:41;15.65;;;10.00;;
20914;SDS011;10617;52.032;5.298;2024-03-06T02:12:42;17.75;;;10.48;;
20914;SDS011;10617;52.032;5.298;2024-03-06T02:16:44;16.50;;;10.40;;
20914;SDS011;10617;52.032;5.298;2024-03-06T02:20:46;17.10;;;10.32;;
20914;SDS011;10617;52.032;5.298;2024-03-06T02:24:49;16.90;;;9.98;;
20914;SDS011;10617;52.032;5.298;2024-03-06T02:28:54;16.15;;;10.32;;
20914;SDS011;10617;52.032;5.298;2024-03-06T02:32:57;17.70;;;11.00;;
20914;SDS011;10617;52.032;5.298;2024-03-06T02:36:59;14.88;;;9.65;;
20914;SDS011;10617;52.032;5.298;2024-03-06T02:41:01;17.88;;;10.63;;
20914;SDS011;10617;52.032;5.298;2024-03-06T02:45:04;17.52;;;10.55;;
20914;SDS011;10617;52.032;5.298;2024-03-06T02:49:08;17.08;;;10.32;;
20914;SDS011;10617;52.032;5.298;2024-03-06T02:53:10;16.63;;;9.85;;
20914;SDS011;10617;52.032;5.298;2024-03-06T02:57:12;15.93;;;9.70;;
20914;SDS011;10617;52.032;5.298;2024-03-06T03:01:14;15.32;;;9.00;;
20914;SDS011;10617;52.032;5.298;2024-03-06T03:05:16;15.35;;;9.50;;
20914;SDS011;10617;52.032;5.298;2024-03-06T03:09:18;17.42;;;9.52;;
20914;SDS011;10617;52.032;5.298;2024-03-06T03:13:20;18.48;;;10.40;;
20914;SDS011;10617;52.032;5.298;2024-03-06T07:02:33;31.75;;;12.27;;
20914;SDS011;10617;52.032;5.298;2024-03-06T07:06:35;25.85;;;13.13;;
20914;SDS011;10617;52.032;5.298;2024-03-06T07:10:36;26.98;;;12.68;;
20914;SDS011;10617;52.032;5.298;2024-03-06T07:14:38;29.00;;;13.15;;
20914;SDS011;10617;52.032;5.298;2024-03-06T07:30:45;26.67;;;14.02;;
20914;SDS011;10617;52.032;5.298;2024-03-06T07:59:57;32.17;;;15.60;;
20914;SDS011;10617;52.032;5.298;2024-03-06T08:03:59;27.95;;;15.30;;
20914;SDS011;10617;52.032;5.298;2024-03-06T08:08:01;30.40;;;14.57;;
